sensor_id;sensor_type;location;lat;lon;timestamp;P1;durP1;ratioP1;P2;durP2;ratioP2
10473;SDS011;5284;50.446;7.904;2023-04-23T00:03:04;7.25;;;3.28;;
10473;SDS011;5284;50.446;7.904;2023-04-23T00:08:11;7.13;;;3.38;;
10473;SDS011;5284;50.446;7.904;2023-04-23T00:13:16;17.15;;;7.05;;
10473;SDS011;5284;50.446;7.904;2023-04-23T00:18:19;8.88;;;4.30;;
10473;SDS011;5284;50.446;7.904;2023-04-23T00:23:22;15.70;;;6.78;;
10473;SDS011;5284;50.446;7.904;2023-04-23T00:28:26;21.52;;;5.60;;
10473;SDS011;5284;50.446;7.904;2023-04-23T00:33:28;8.65;;;3.97;;
10473;SDS011;5284;50.446;7.904;2023-04-23T00:38:31;16.23;;;4.65;;
10473;SDS011;5284;50.446;7.904;2023-04-23T00:43:35;5.57;;;3.15;;
10473;SDS011;5284;50.446;7.904;2023-04-23T00:48:39;12.85;;;5.10;;
10473;SDS011;5284;50.446;7.904;2023-04-23T00:53:42;18.33;;;6.45;;
10473;SDS011;5284;50.446;7.904;2023-04-23T00:58:47;18.65;;;6.53;;
10473;SDS011;5284;50.446;7.904;2023-04-23T01:03:50;8.23;;;3.92;;
10473;SDS011;5284;50.446;7.904;2023-04-23T01:08:54;5.30;;;3.33;;
10473;SDS011;5284;50.446;7.904;2023-04-23T01:13:58;12.18;;;6.38;;
10473;SDS011;5284;50.446;7.904;2023-04-23T01:19:02;6.15;;;3.42;;
10473;SDS011;5284;50.446;7.904;2023-04-23T01:24:06;4.78;;;3.30;;
10473;SDS011;5284;50.446;7.904;2023-04-23T01:29:10;7.10;;;3.85;;
10473;SDS011;5284;50.446;7.904;2023-04-23T01:34:13;6.53;;;3.85;;
10473;SDS011;5284;50.446;7.904;2023-04-23T01:39:18;6.20;;;3.80;;
10473;SDS011;5284;50.446;7.904;2023-04-23T01:44:21;5.85;;;3.78;;
10473;SDS011;5284;50.446;7.904;2023-04-23T01:49:24;6.45;;;3.90;;
10473;SDS011;5284;50.446;7.904;2023-04-23T01:54:29;7.25;;;4.18;;
10473;SDS011;5284;50.446;7.904;2023-04-23T01:59:31;9.13;;;4.65;;
10473;SDS011;5284;50.446;7.904;2023-04-23T02:04:34;8.88;;;4.05;;
10473;SDS011;5284;50.446;7.904;2023-04-23T02:09:39;7.50;;;4.95;;
10473;SDS011;5284;50.446;7.904;2023-04-23T02:14:42;8.10;;;4.53;;
10473;SDS011;5284;50.446;7.904;2023-04-23T02:19:45;6.43;;;4.30;;
10473;SDS011;5284;50.446;7.904;2023-04-23T02:24:50;8.43;;;4.95;;
10473;SDS011;5284;50.446;7.904;2023-04-23T02:29:52;7.85;;;4.85;;
10473;SDS011;5284;50.446;7.904;2023-04-23T02:34:56;7.88;;;4.25;;
10473;SDS011;5284;50.446;7.904;2023-04-23T02:40:01;10.52;;;5.05;;
10473;SDS011;5284;50.446;7.904;2023-04-23T02:45:05;10.10;;;4.88;;
10473;SDS011;5284;50.446;7.904;2023-04-23T02:50:09;11.02;;;5.47;;
10473;SDS011;5284;50.446;7.904;2023-04-23T02:55:13;8.75;;;5.10;;
10473;SDS011;5284;50.446;7.904;2023-04-23T03:00:17;8.73;;;4.63;;
10473;SDS011;5284;50.446;7.904;2023-04-23T03:05:20;15.18;;;5.72;;
10473;SDS011;5284;50.446;7.904;2023-04-23T03:10:25;7.90;;;5.47;;
10473;SDS011;5284;50.446;7.904;2023-04-23T03:15:28;10.57;;;4.75;;
10473;SDS011;5284;50.446;7.904;2023-04-23T03:20:30;8.95;;;5.03;;
10473;SDS011;5284;50.446;7.904;2023-04-23T03:25:35;11.20;;;5.10;;
10473;SDS011;5284;50.446;7.904;2023-04-23T03:30:38;11.63;;;5.40;;
10473;SDS011;5284;50.446;7.904;2023-04-23T03:35:42;7.97;;;5.05;;
10473;SDS011;5284;50.446;7.904;2023-04-23T03:40:51;8.38;;;5.82;;
10473;SDS011;5284;50.446;7.904;2023-04-23T03:45:55;10.20;;;5.40;;
10473;SDS011;5284;50.446;7.904;2023-04-23T03:50:58;7.85;;;4.90;;
10473;SDS011;5284;50.446;7.904;2023-04-23T03:56:14;13.45;;;6.30;;
10473;SDS011;5284;50.446;7.904;2023-04-23T04:01:27;9.05;;;5.13;;
10473;SDS011;5284;50.446;7.904;2023-04-23T04:06:32;9.57;;;5.68;;
10473;SDS011;5284;50.446;7.904;2023-04-23T04:11:36;11.70;;;5.60;;
10473;SDS011;5284;50.446;7.904;2023-04-23T04:16:39;10.07;;;5.60;;
10473;SDS011;5284;50.446;7.904;2023-04-23T04:21:42;9.20;;;5.28;;
10473;SDS011;5284;50.446;7.904;2023-04-23T04:26:47;11.23;;;5.22;;
10473;SDS011;5284;50.446;7.904;2023-04-23T04:31:50;7.88;;;5.63;;
10473;SDS011;5284;50.446;7.904;2023-04-23T04:36:53;11.07;;;6.22;;
10473;SDS011;5284;50.446;7.904;2023-04-23T04:41:57;9.52;;;5.60;;
10473;SDS011;5284;50.446;7.904;2023-04-23T04:47:03;17.40;;;6.97;;
10473;SDS011;5284;50.446;7.904;2023-04-23T04:52:07;11.75;;;6.35;;
10473;SDS011;5284;50.446;7.904;2023-04-23T04:57:13;15.57;;;6.60;;
10473;SDS011;5284;50.446;7.904;2023-04-23T05:02:16;9.55;;;6.35;;
10473;SDS011;5284;50.446;7.904;2023-04-23T05:07:20;11.80;;;5.95;;
10473;SDS011;5284;50.446;7.904;2023-04-23T05:12:24;15.77;;;6.07;;
10473;SDS011;5284;50.446;7.904;2023-04-23T05:17:27;10.38;;;5.65;;
10473;SDS011;5284;50.446;7.904;2023-04-23T05:22:30;9.70;;;6.05;;
10473;SDS011;5284;50.446;7.904;2023-04-23T05:27:34;13.25;;;6.30;;
10473;SDS011;5284;50.446;7.904;2023-04-23T05:32:37;10.93;;;6.70;;
10473;SDS011;5284;50.446;7.904;2023-04-23T05:37:41;11.88;;;6.80;;
10473;SDS011;5284;50.446;7.904;2023-04-23T05:42:45;15.02;;;6.40;;
10473;SDS011;5284;50.446;7.904;2023-04-23T05:47:48;8.75;;;5.47;;
10473;SDS011;5284;50.446;7.904;2023-04-23T05:52:52;14.23;;;6.40;;
10473;SDS011;5284;50.446;7.904;2023-04-23T05:57:56;7.20;;;5.07;;
10473;SDS011;5284;50.446;7.904;2023-04-23T06:02:59;6.65;;;4.75;;
10473;SDS011;5284;50.446;7.904;2023-04-23T06:08:04;7.07;;;4.13;;
10473;SDS011;5284;50.446;7.904;2023-04-23T06:13:08;7.10;;;4.25;;
10473;SDS011;5284;50.446;7.904;2023-04-23T06:18:11;9.57;;;4.47;;
10473;SDS011;5284;50.446;7.904;2023-04-23T06:23:14;8.05;;;4.60;;
10473;SDS011;5284;50.446;7.904;2023-04-23T06:28:18;10.23;;;3.95;;
10473;SDS011;5284;50.446;7.904;2023-04-23T06:33:44;6.30;;;3.85;;
10473;SDS011;5284;50.446;7.904;2023-04-23T06:38:47;7.63;;;4.30;;
10473;SDS011;5284;50.446;7.904;2023-04-23T06:43:52;9.18;;;4.45;;
10473;SDS011;5284;50.446;7.904;2023-04-23T06:49:12;6.75;;;4.13;;
10473;SDS011;5284;50.446;7.904;2023-04-23T06:54:16;6.68;;;3.85;;
10473;SDS011;5284;50.446;7.904;2023-04-23T06:59:20;7.78;;;4.30;;
10473;SDS011;5284;50.446;7.904;2023-04-23T07:04:26;8.05;;;4.00;;
10473;SDS011;5284;50.446;7.904;2023-04-23T07:09:29;7.88;;;4.22;;
10473;SDS011;5284;50.446;7.904;2023-04-23T07:14:34;5.60;;;3.63;;
10473;SDS011;5284;50.446;7.904;2023-04-23T07:19:38;7.55;;;3.70;;
10473;SDS011;5284;50.446;7.904;2023-04-23T07:24:41;6.43;;;3.80;;
10473;SDS011;5284;50.446;7.904;2023-04-23T07:29:45;4.72;;;3.60;;
10473;SDS011;5284;50.446;7.904;2023-04-23T07:34:49;10.32;;;4.10;;
10473;SDS011;5284;50.446;7.904;2023-04-23T07:39:52;7.13;;;4.20;;
10473;SDS011;5284;50.446;7.904;2023-04-23T07:44:56;14.50;;;4.88;;
10473;SDS011;5284;50.446;7.904;2023-04-23T07:49:59;9.23;;;3.72;;
10473;SDS011;5284;50.446;7.904;2023-04-23T07:55:02;8.43;;;4.05;;
10473;SDS011;5284;50.446;7.904;2023-04-23T08:00:07;7.18;;;3.70;;
10473;SDS011;5284;50.446;7.904;2023-04-23T08:05:14;5.07;;;3.50;;
10473;SDS011;5284;50.446;7.904;2023-04-23T08:10:17;8.45;;;3.45;;
10473;SDS011;5284;50.446;7.904;2023-04-23T08:15:23;7.72;;;3.10;;
10473;SDS011;5284;50.446;7.904;2023-04-23T08:20:26;6.68;;;3.83;;
10473;SDS011;5284;50.446;7.904;2023-04-23T08:25:30;6.20;;;3.90;;
10473;SDS011;5284;50.446;7.904;2023-04-23T08:30:34;4.60;;;3.40;;
10473;SDS011;5284;50.446;7.904;2023-04-23T08:35:38;7.25;;;3.38;;
10473;SDS011;5284;50.446;7.904;2023-04-23T08:40:41;7.90;;;3.53;;
10473;SDS011;5284;50.446;7.904;2023-04-23T08:45:46;7.78;;;3.47;;
10473;SDS011;5284;50.446;7.904;2023-04-23T08:50:50;7.78;;;3.45;;
10473;SDS011;5284;50.446;7.904;2023-04-23T08:55:53;5.35;;;2.67;;
10473;SDS011;5284;50.446;7.904;2023-04-23T09:00:59;5.55;;;2.50;;
10473;SDS011;5284;50.446;7.904;2023-04-23T09:06:03;7.15;;;2.53;;
10473;SDS011;5284;50.446;7.904;2023-04-23T09:11:06;4.90;;;2.00;;
10473;SDS011;5284;50.446;7.904;2023-04-23T09:16:11;5.22;;;2.05;;
10473;SDS011;5284;50.446;7.904;2023-04-23T09:21:14;4.80;;;1.80;;
10473;SDS011;5284;50.446;7.904;2023-04-23T09:26:18;4.20;;;1.83;;
10473;SDS011;5284;50.446;7.904;2023-04-23T09:31:24;3.53;;;1.60;;
10473;SDS011;5284;50.446;7.904;2023-04-23T09:36:27;6.75;;;1.65;;
10473;SDS011;5284;50.446;7.904;2023-04-23T09:41:31;9.48;;;2.40;;
10473;SDS011;5284;50.446;7.904;2023-04-23T09:46:36;4.25;;;2.08;;
10473;SDS011;5284;50.446;7.904;2023-04-23T09:51:41;5.22;;;2.83;;
10473;SDS011;5284;50.446;7.904;2023-04-23T09:56:48;5.80;;;1.90;;
10473;SDS011;5284;50.446;7.904;2023-04-23T10:01:54;9.70;;;1.55;;
10473;SDS011;5284;50.446;7.904;2023-04-23T10:06:58;4.05;;;1.83;;
10473;SDS011;5284;50.446;7.904;2023-04-23T10:12:07;4.55;;;1.92;;
10473;SDS011;5284;50.446;7.904;2023-04-23T10:17:34;9.18;;;1.77;;
10473;SDS011;5284;50.446;7.904;2023-04-23T10:22:37;4.68;;;1.52;;
10473;SDS011;5284;50.446;7.904;2023-04-23T10:27:45;6.43;;;2.50;;
10473;SDS011;5284;50.446;7.904;2023-04-23T10:32:56;8.75;;;2.55;;
10473;SDS011;5284;50.446;7.904;2023-04-23T10:38:02;4.82;;;2.15;;
10473;SDS011;5284;50.446;7.904;2023-04-23T10:43:05;9.70;;;2.75;;
10473;SDS011;5284;50.446;7.904;2023-04-23T10:48:10;11.68;;;3.65;;
10473;SDS011;5284;50.446;7.904;2023-04-23T10:53:19;6.43;;;3.28;;
10473;SDS011;5284;50.446;7.904;2023-04-23T10:58:22;9.02;;;3.47;;
10473;SDS011;5284;50.446;7.904;2023-04-23T11:03:27;6.88;;;3.95;;
10473;SDS011;5284;50.446;7.904;2023-04-23T11:08:32;7.57;;;3.13;;
10473;SDS011;5284;50.446;7.904;2023-04-23T11:13:40;14.57;;;2.65;;
10473;SDS011;5284;50.446;7.904;2023-04-23T11:18:57;5.07;;;2.97;;
10473;SDS011;5284;50.446;7.904;2023-04-23T11:24:05;7.38;;;3.38;;
10473;SDS011;5284;50.446;7.904;2023-04-23T11:29:08;4.35;;;3.08;;
10473;SDS011;5284;50.446;7.904;2023-04-23T11:34:17;11.20;;;3.60;;
10473;SDS011;5284;50.446;7.904;2023-04-23T11:39:21;4.72;;;2.10;;
10473;SDS011;5284;50.446;7.904;2023-04-23T11:44:26;4.20;;;1.95;;
10473;SDS011;5284;50.446;7.904;2023-04-23T11:49:30;6.93;;;1.90;;
10473;SDS011;5284;50.446;7.904;2023-04-23T11:54:33;3.13;;;1.67;;
10473;SDS011;5284;50.446;7.904;2023-04-23T11:59:36;2.60;;;1.40;;
10473;SDS011;5284;50.446;7.904;2023-04-23T12:04:42;3.35;;;2.03;;
10473;SDS011;5284;50.446;7.904;2023-04-23T12:09:45;2.70;;;1.20;;
10473;SDS011;5284;50.446;7.904;2023-04-23T12:14:48;7.28;;;2.58;;
10473;SDS011;5284;50.446;7.904;2023-04-23T12:19:52;4.65;;;1.58;;
10473;SDS011;5284;50.446;7.904;2023-04-23T12:24:56;4.75;;;1.48;;
10473;SDS011;5284;50.446;7.904;2023-04-23T12:30:00;5.95;;;1.40;;
10473;SDS011;5284;50.446;7.904;2023-04-23T12:35:09;4.43;;;1.33;;
10473;SDS011;5284;50.446;7.904;2023-04-23T12:40:12;3.70;;;1.38;;
10473;SDS011;5284;50.446;7.904;2023-04-23T12:45:15;5.15;;;1.65;;
10473;SDS011;5284;50.446;7.904;2023-04-23T12:50:20;5.25;;;1.38;;
10473;SDS011;5284;50.446;7.904;2023-04-23T12:55:23;4.53;;;1.33;;
10473;SDS011;5284;50.446;7.904;2023-04-23T13:00:26;2.30;;;1.20;;
10473;SDS011;5284;50.446;7.904;2023-04-23T13:05:30;2.50;;;1.08;;
10473;SDS011;5284;50.446;7.904;2023-04-23T13:10:33;1.73;;;0.88;;
10473;SDS011;5284;50.446;7.904;2023-04-23T13:15:36;5.88;;;0.93;;
10473;SDS011;5284;50.446;7.904;2023-04-23T13:20:42;6.13;;;1.23;;
10473;SDS011;5284;50.446;7.904;2023-04-23T13:25:45;2.95;;;1.23;;
10473;SDS011;5284;50.446;7.904;2023-04-23T13:30:48;4.82;;;1.52;;
10473;SDS011;5284;50.446;7.904;2023-04-23T13:35:52;3.25;;;1.27;;
10473;SDS011;5284;50.446;7.904;2023-04-23T13:40:56;6.90;;;1.10;;
10473;SDS011;5284;50.446;7.904;2023-04-23T13:45:59;2.30;;;1.10;;
10473;SDS011;5284;50.446;7.904;2023-04-23T13:51:07;5.90;;;1.15;;
10473;SDS011;5284;50.446;7.904;2023-04-23T14:01:34;3.63;;;1.10;;
10473;SDS011;5284;50.446;7.904;2023-04-23T14:06:39;1.98;;;0.93;;
10473;SDS011;5284;50.446;7.904;2023-04-23T14:11:42;3.25;;;1.13;;
10473;SDS011;5284;50.446;7.904;2023-04-23T14:16:45;4.30;;;1.13;;
10473;SDS011;5284;50.446;7.904;2023-04-23T14:21:49;4.40;;;1.17;;
10473;SDS011;5284;50.446;7.904;2023-04-23T14:26:53;1.73;;;1.15;;
10473;SDS011;5284;50.446;7.904;2023-04-23T14:31:57;3.55;;;0.90;;
10473;SDS011;5284;50.446;7.904;2023-04-23T14:37:01;2.40;;;1.90;;
10473;SDS011;5284;50.446;7.904;2023-04-23T14:42:05;4.82;;;1.30;;
10473;SDS011;5284;50.446;7.904;2023-04-23T14:47:08;7.32;;;1.30;;
10473;SDS011;5284;50.446;7.904;2023-04-23T14:52:13;3.88;;;1.30;;
10473;SDS011;5284;50.446;7.904;2023-04-23T14:57:16;3.15;;;0.93;;
10473;SDS011;5284;50.446;7.904;2023-04-23T15:02:20;5.55;;;1.40;;
10473;SDS011;5284;50.446;7.904;2023-04-23T15:07:24;3.25;;;1.08;;
10473;SDS011;5284;50.446;7.904;2023-04-23T15:12:40;3.97;;;1.05;;
10473;SDS011;5284;50.446;7.904;2023-04-23T15:17:45;2.28;;;1.10;;
10473;SDS011;5284;50.446;7.904;2023-04-23T15:22:50;3.75;;;1.35;;
10473;SDS011;5284;50.446;7.904;2023-04-23T15:27:53;5.93;;;2.20;;
10473;SDS011;5284;50.446;7.904;2023-04-23T15:32:58;4.47;;;1.52;;
10473;SDS011;5284;50.446;7.904;2023-04-23T15:38:03;5.30;;;1.30;;
10473;SDS011;5284;50.446;7.904;2023-04-23T15:43:09;4.50;;;1.80;;
10473;SDS011;5284;50.446;7.904;2023-04-23T15:48:13;5.28;;;2.03;;
10473;SDS011;5284;50.446;7.904;2023-04-23T15:53:17;8.52;;;1.75;;
10473;SDS011;5284;50.446;7.904;2023-04-23T15:58:23;3.28;;;1.40;;
10473;SDS011;5284;50.446;7.904;2023-04-23T16:03:26;1.90;;;1.20;;
10473;SDS011;5284;50.446;7.904;2023-04-23T16:08:32;3.20;;;1.80;;
10473;SDS011;5284;50.446;7.904;2023-04-23T16:13:36;1.77;;;1.30;;
10473;SDS011;5284;50.446;7.904;2023-04-23T16:18:39;3.75;;;1.73;;
10473;SDS011;5284;50.446;7.904;2023-04-23T16:23:45;4.00;;;1.38;;
10473;SDS011;5284;50.446;7.904;2023-04-23T16:28:47;6.00;;;1.42;;
10473;SDS011;5284;50.446;7.904;2023-04-23T16:34:05;6.22;;;1.50;;
10473;SDS011;5284;50.446;7.904;2023-04-23T16:39:13;3.40;;;1.27;;
10473;SDS011;5284;50.446;7.904;2023-04-23T16:44:16;3.63;;;1.23;;
10473;SDS011;5284;50.446;7.904;2023-04-23T16:49:19;4.05;;;1.30;;
10473;SDS011;5284;50.446;7.904;2023-04-23T16:54:24;2.70;;;1.48;;
10473;SDS011;5284;50.446;7.904;2023-04-23T16:59:28;4.15;;;1.50;;
10473;SDS011;5284;50.446;7.904;2023-04-23T17:04:31;6.20;;;1.33;;
10473;SDS011;5284;50.446;7.904;2023-04-23T17:09:35;6.38;;;2.70;;
10473;SDS011;5284;50.446;7.904;2023-04-23T17:14:38;6.28;;;1.85;;
10473;SDS011;5284;50.446;7.904;2023-04-23T17:19:42;66.47;;;20.83;;
10473;SDS011;5284;50.446;7.904;2023-04-23T17:24:47;7.07;;;2.40;;
10473;SDS011;5284;50.446;7.904;2023-04-23T17:29:50;5.22;;;2.30;;
10473;SDS011;5284;50.446;7.904;2023-04-23T17:34:53;12.75;;;2.80;;
10473;SDS011;5284;50.446;7.904;2023-04-23T17:40:11;13.50;;;2.70;;
10473;SDS011;5284;50.446;7.904;2023-04-23T17:45:15;13.43;;;5.05;;
10473;SDS011;5284;50.446;7.904;2023-04-23T17:50:19;8.25;;;2.25;;
10473;SDS011;5284;50.446;7.904;2023-04-23T17:55:23;10.52;;;3.72;;
10473;SDS011;5284;50.446;7.904;2023-04-23T18:00:27;7.55;;;3.78;;
10473;SDS011;5284;50.446;7.904;2023-04-23T18:05:31;3.85;;;2.28;;
10473;SDS011;5284;50.446;7.904;2023-04-23T18:10:37;5.60;;;2.63;;
10473;SDS011;5284;50.446;7.904;2023-04-23T18:15:40;2.95;;;2.05;;
10473;SDS011;5284;50.446;7.904;2023-04-23T18:20:43;10.27;;;2.92;;
10473;SDS011;5284;50.446;7.904;2023-04-23T18:25:49;6.00;;;2.17;;
10473;SDS011;5284;50.446;7.904;2023-04-23T18:30:52;6.05;;;1.77;;
10473;SDS011;5284;50.446;7.904;2023-04-23T18:36:00;7.22;;;1.98;;
10473;SDS011;5284;50.446;7.904;2023-04-23T18:41:06;2.03;;;1.33;;
10473;SDS011;5284;50.446;7.904;2023-04-23T18:46:08;2.58;;;1.55;;
10473;SDS011;5284;50.446;7.904;2023-04-23T18:51:13;2.42;;;1.48;;
10473;SDS011;5284;50.446;7.904;2023-04-23T18:56:23;6.00;;;1.33;;
10473;SDS011;5284;50.446;7.904;2023-04-23T19:01:26;9.90;;;1.58;;
10473;SDS011;5284;50.446;7.904;2023-04-23T19:06:29;1.63;;;1.27;;
10473;SDS011;5284;50.446;7.904;2023-04-23T19:11:34;2.95;;;1.20;;
10473;SDS011;5284;50.446;7.904;2023-04-23T19:21:43;2.85;;;1.33;;
10473;SDS011;5284;50.446;7.904;2023-04-23T19:26:48;13.43;;;3.60;;
10473;SDS011;5284;50.446;7.904;2023-04-23T19:31:51;18.10;;;5.85;;
10473;SDS011;5284;50.446;7.904;2023-04-23T19:36:54;10.13;;;2.70;;
10473;SDS011;5284;50.446;7.904;2023-04-23T19:42:00;2.88;;;2.05;;
10473;SDS011;5284;50.446;7.904;2023-04-23T19:47:04;3.03;;;1.80;;
10473;SDS011;5284;50.446;7.904;2023-04-23T19:52:08;2.72;;;1.60;;
10473;SDS011;5284;50.446;7.904;2023-04-23T19:57:18;2.47;;;1.15;;
10473;SDS011;5284;50.446;7.904;2023-04-23T20:02:22;2.72;;;1.45;;
10473;SDS011;5284;50.446;7.904;2023-04-23T20:07:26;3.33;;;1.45;;
10473;SDS011;5284;50.446;7.904;2023-04-23T20:12:30;6.80;;;1.25;;
10473;SDS011;5284;50.446;7.904;2023-04-23T20:17:34;5.78;;;2.25;;
10473;SDS011;5284;50.446;7.904;2023-04-23T20:22:37;4.03;;;1.85;;
10473;SDS011;5284;50.446;7.904;2023-04-23T20:27:42;3.20;;;1.60;;
10473;SDS011;5284;50.446;7.904;2023-04-23T20:32:45;3.60;;;1.40;;
10473;SDS011;5284;50.446;7.904;2023-04-23T20:37:47;2.88;;;1.60;;
10473;SDS011;5284;50.446;7.904;2023-04-23T20:42:52;9.25;;;2.35;;
10473;SDS011;5284;50.446;7.904;2023-04-23T20:47:55;5.65;;;2.20;;
10473;SDS011;5284;50.446;7.904;2023-04-23T20:52:58;1.33;;;1.10;;
10473;SDS011;5284;50.446;7.904;2023-04-23T20:58:02;1.92;;;1.30;;
10473;SDS011;5284;50.446;7.904;2023-04-23T21:03:05;4.82;;;1.73;;
10473;SDS011;5284;50.446;7.904;2023-04-23T21:08:09;1.15;;;0.80;;
10473;SDS011;5284;50.446;7.904;2023-04-23T21:13:15;4.65;;;1.33;;
10473;SDS011;5284;50.446;7.904;2023-04-23T21:18:18;1.63;;;0.90;;
10473;SDS011;5284;50.446;7.904;2023-04-23T21:23:21;1.17;;;0.82;;
10473;SDS011;5284;50.446;7.904;2023-04-23T21:28:25;1.73;;;0.73;;
10473;SDS011;5284;50.446;7.904;2023-04-23T21:33:28;2.35;;;1.13;;
10473;SDS011;5284;50.446;7.904;2023-04-23T21:38:30;4.18;;;1.05;;
10473;SDS011;5284;50.446;7.904;2023-04-23T21:43:35;1.02;;;0.80;;
10473;SDS011;5284;50.446;7.904;2023-04-23T21:48:39;1.63;;;0.65;;
10473;SDS011;5284;50.446;7.904;2023-04-23T21:53:42;1.83;;;0.90;;
10473;SDS011;5284;50.446;7.904;2023-04-23T21:58:48;1.92;;;0.95;;
10473;SDS011;5284;50.446;7.904;2023-04-23T22:03:51;1.25;;;0.63;;
10473;SDS011;5284;50.446;7.904;2023-04-23T22:08:54;1.45;;;0.73;;
10473;SDS011;5284;50.446;7.904;2023-04-23T22:13:59;0.70;;;0.68;;
10473;SDS011;5284;50.446;7.904;2023-04-23T22:19:02;2.13;;;0.90;;
10473;SDS011;5284;50.446;7.904;2023-04-23T22:24:04;3.80;;;0.80;;
10473;SDS011;5284;50.446;7.904;2023-04-23T22:29:09;2.03;;;1.00;;
10473;SDS011;5284;50.446;7.904;2023-04-23T22:34:12;2.40;;;1.23;;
10473;SDS011;5284;50.446;7.904;2023-04-23T22:39:15;2.75;;;1.40;;
10473;SDS011;5284;50.446;7.904;2023-04-23T22:44:19;4.40;;;1.30;;
10473;SDS011;5284;50.446;7.904;2023-04-23T22:49:22;1.83;;;1.27;;
10473;SDS011;5284;50.446;7.904;2023-04-23T22:54:26;1.70;;;0.93;;
10473;SDS011;5284;50.446;7.904;2023-04-23T22:59:30;7.00;;;1.10;;
10473;SDS011;5284;50.446;7.904;2023-04-23T23:04:32;2.20;;;1.20;;
10473;SDS011;5284;50.446;7.904;2023-04-23T23:09:38;5.97;;;1.48;;
10473;SDS011;5284;50.446;7.904;2023-04-23T23:14:42;2.80;;;1.23;;
10473;SDS011;5284;50.446;7.904;2023-04-23T23:19:45;1.90;;;1.05;;
10473;SDS011;5284;50.446;7.904;2023-04-23T23:24:48;1.70;;;0.98;;
10473;SDS011;5284;50.446;7.904;2023-04-23T23:29:52;9.07;;;1.60;;
10473;SDS011;5284;50.446;7.904;2023-04-23T23:34:55;2.75;;;1.10;;
10473;SDS011;5284;50.446;7.904;2023-04-23T23:39:58;3.90;;;1.23;;
10473;SDS011;5284;50.446;7.904;2023-04-23T23:45:02;2.22;;;1.20;;
10473;SDS011;5284;50.446;7.904;2023-04-23T23:50:06;2.70;;;1.50;;
10473;SDS011;5284;50.446;7.904;2023-04-23T23:55:09;2.70;;;1.20;;
